sensor_id;sensor_type;location;lat;lon;timestamp;temperature;humidity
7214;DHT22;3648;50.614;13.830;2023-01-26T00:02:23;1.20;1.00
7214;DHT22;3648;50.614;13.830;2023-01-26T00:04:49;1.20;1.00
7214;DHT22;3648;50.614;13.830;2023-01-26T00:07:16;1.30;1.00
7214;DHT22;3648;50.614;13.830;2023-01-26T00:09:43;1.30;1.00
7214;DHT22;3648;50.614;13.830;2023-01-26T00:12:12;1.30;1.00
7214;DHT22;3648;50.614;13.830;2023-01-26T00:14:39;1.30;1.00
7214;DHT22;3648;50.614;13.830;2023-01-26T00:17:20;1.30;1.00
7214;DHT22;3648;50.614;13.830;2023-01-26T00:19:55;1.30;1.00
7214;DHT22;3648;50.614;13.830;2023-01-26T00:22:22;1.30;1.00
7214;DHT22;3648;50.614;13.830;2023-01-26T00:24:49;1.30;1.00
7214;DHT22;3648;50.614;13.830;2023-01-26T00:27:18;1.30;1.00
7214;DHT22;3648;50.614;13.830;2023-01-26T00:29:44;1.30;1.00
7214;DHT22;3648;50.614;13.830;2023-01-26T00:32:11;1.30;1.00
7214;DHT22;3648;50.614;13.830;2023-01-26T00:34:38;1.40;1.00
7214;DHT22;3648;50.614;13.830;2023-01-26T00:37:05;1.40;1.00
7214;DHT22;3648;50.614;13.830;2023-01-26T00:39:32;1.40;1.00
7214;DHT22;3648;50.614;13.830;2023-01-26T00:41:59;1.40;1.00
7214;DHT22;3648;50.614;13.830;2023-01-26T00:44:36;1.40;1.00
7214;DHT22;3648;50.614;13.830;2023-01-26T00:47:04;1.40;1.00
7214;DHT22;3648;50.614;13.830;2023-01-26T00:49:32;1.40;1.00
7214;DHT22;3648;50.614;13.830;2023-01-26T00:51:59;1.40;1.00
7214;DHT22;3648;50.614;13.830;2023-01-26T00:54:26;1.50;1.00
7214;DHT22;3648;50.614;13.830;2023-01-26T00:56:53;1.50;1.00
7214;DHT22;3648;50.614;13.830;2023-01-26T00:59:21;1.50;1.00
7214;DHT22;3648;50.614;13.830;2023-01-26T01:01:50;1.50;1.00
7214;DHT22;3648;50.614;13.830;2023-01-26T01:04:17;1.50;1.00
7214;DHT22;3648;50.614;13.830;2023-01-26T01:06:44;1.60;1.00
7214;DHT22;3648;50.614;13.830;2023-01-26T01:09:11;1.60;1.00
7214;DHT22;3648;50.614;13.830;2023-01-26T01:11:38;1.50;1.00
7214;DHT22;3648;50.614;13.830;2023-01-26T01:14:05;1.50;1.00
7214;DHT22;3648;50.614;13.830;2023-01-26T01:16:32;1.50;1.00
7214;DHT22;3648;50.614;13.830;2023-01-26T01:19:00;1.40;1.00
7214;DHT22;3648;50.614;13.830;2023-01-26T01:21:27;1.40;1.00
7214;DHT22;3648;50.614;13.830;2023-01-26T01:23:56;1.30;1.00
7214;DHT22;3648;50.614;13.830;2023-01-26T01:26:23;1.30;1.00
7214;DHT22;3648;50.614;13.830;2023-01-26T01:28:52;1.20;1.00
7214;DHT22;3648;50.614;13.830;2023-01-26T01:31:19;1.30;1.00
7214;DHT22;3648;50.614;13.830;2023-01-26T01:33:46;1.20;1.00
7214;DHT22;3648;50.614;13.830;2023-01-26T01:36:16;1.30;1.00
7214;DHT22;3648;50.614;13.830;2023-01-26T01:38:44;1.20;1.00
7214;DHT22;3648;50.614;13.830;2023-01-26T01:41:11;1.20;1.00
7214;DHT22;3648;50.614;13.830;2023-01-26T01:43:39;1.20;1.00
7214;DHT22;3648;50.614;13.830;2023-01-26T01:46:08;1.10;1.00
7214;DHT22;3648;50.614;13.830;2023-01-26T01:48:45;1.10;1.00
7214;DHT22;3648;50.614;13.830;2023-01-26T01:51:17;1.00;1.00
7214;DHT22;3648;50.614;13.830;2023-01-26T01:53:47;1.00;1.00
7214;DHT22;3648;50.614;13.830;2023-01-26T01:56:17;1.00;1.00
7214;DHT22;3648;50.614;13.830;2023-01-26T01:58:48;1.10;1.00
7214;DHT22;3648;50.614;13.830;2023-01-26T02:01:16;1.10;1.00
7214;DHT22;3648;50.614;13.830;2023-01-26T02:03:44;1.10;1.00
7214;DHT22;3648;50.614;13.830;2023-01-26T02:06:13;1.10;1.00
7214;DHT22;3648;50.614;13.830;2023-01-26T02:08:43;1.20;1.00
7214;DHT22;3648;50.614;13.830;2023-01-26T02:11:13;1.20;1.00
7214;DHT22;3648;50.614;13.830;2023-01-26T02:13:43;1.20;1.00
7214;DHT22;3648;50.614;13.830;2023-01-26T02:16:11;1.20;1.00
7214;DHT22;3648;50.614;13.830;2023-01-26T02:18:38;1.30;1.00
7214;DHT22;3648;50.614;13.830;2023-01-26T02:21:06;1.30;1.00
7214;DHT22;3648;50.614;13.830;2023-01-26T02:23:54;1.30;1.00
7214;DHT22;3648;50.614;13.830;2023-01-26T02:26:28;1.30;1.00
7214;DHT22;3648;50.614;13.830;2023-01-26T02:28:56;1.30;1.00
7214;DHT22;3648;50.614;13.830;2023-01-26T02:31:24;1.30;1.00
7214;DHT22;3648;50.614;13.830;2023-01-26T02:33:52;1.30;1.00
7214;DHT22;3648;50.614;13.830;2023-01-26T02:36:21;1.30;1.00
7214;DHT22;3648;50.614;13.830;2023-01-26T02:38:58;1.30;1.00
7214;DHT22;3648;50.614;13.830;2023-01-26T02:41:27;1.30;1.00
7214;DHT22;3648;50.614;13.830;2023-01-26T02:44:12;1.30;1.00
7214;DHT22;3648;50.614;13.830;2023-01-26T02:46:39;1.30;1.00
7214;DHT22;3648;50.614;13.830;2023-01-26T02:49:05;1.30;1.00
7214;DHT22;3648;50.614;13.830;2023-01-26T02:51:50;1.30;1.00
7214;DHT22;3648;50.614;13.830;2023-01-26T02:54:17;1.30;1.00
7214;DHT22;3648;50.614;13.830;2023-01-26T02:56:59;1.30;1.00
7214;DHT22;3648;50.614;13.830;2023-01-26T02:59:26;1.30;1.00
7214;DHT22;3648;50.614;13.830;2023-01-26T03:01:55;1.30;1.00
7214;DHT22;3648;50.614;13.830;2023-01-26T03:04:22;1.30;1.00
7214;DHT22;3648;50.614;13.830;2023-01-26T03:06:49;1.20;1.00
7214;DHT22;3648;50.614;13.830;2023-01-26T03:09:16;1.20;1.00
7214;DHT22;3648;50.614;13.830;2023-01-26T03:11:43;1.30;1.00
7214;DHT22;3648;50.614;13.830;2023-01-26T03:14:13;1.20;1.00
7214;DHT22;3648;50.614;13.830;2023-01-26T03:16:40;1.20;1.00
7214;DHT22;3648;50.614;13.830;2023-01-26T03:19:10;1.20;1.00
7214;DHT22;3648;50.614;13.830;2023-01-26T03:21:54;1.20;1.00
7214;DHT22;3648;50.614;13.830;2023-01-26T03:24:39;1.20;1.00
7214;DHT22;3648;50.614;13.830;2023-01-26T03:27:23;1.10;1.00
7214;DHT22;3648;50.614;13.830;2023-01-26T03:29:55;1.00;1.00
7214;DHT22;3648;50.614;13.830;2023-01-26T03:32:22;1.00;1.00
7214;DHT22;3648;50.614;13.830;2023-01-26T03:34:49;1.00;1.00
7214;DHT22;3648;50.614;13.830;2023-01-26T03:37:16;0.90;1.00
7214;DHT22;3648;50.614;13.830;2023-01-26T03:39:48;0.90;1.00
7214;DHT22;3648;50.614;13.830;2023-01-26T03:42:33;0.90;1.00
7214;DHT22;3648;50.614;13.830;2023-01-26T03:45:19;0.90;1.00
7214;DHT22;3648;50.614;13.830;2023-01-26T03:48:05;0.80;1.00
7214;DHT22;3648;50.614;13.830;2023-01-26T03:50:49;0.80;1.00
7214;DHT22;3648;50.614;13.830;2023-01-26T03:53:34;0.80;1.00
7214;DHT22;3648;50.614;13.830;2023-01-26T03:56:18;0.80;1.00
7214;DHT22;3648;50.614;13.830;2023-01-26T03:58:48;0.80;1.00
7214;DHT22;3648;50.614;13.830;2023-01-26T04:01:18;0.90;1.00
7214;DHT22;3648;50.614;13.830;2023-01-26T04:03:51;0.90;1.00
7214;DHT22;3648;50.614;13.830;2023-01-26T04:06:37;0.80;1.00
7214;DHT22;3648;50.614;13.830;2023-01-26T04:09:22;0.80;1.00
7214;DHT22;3648;50.614;13.830;2023-01-26T04:11:49;0.80;1.00
7214;DHT22;3648;50.614;13.830;2023-01-26T04:14:16;0.80;1.00
7214;DHT22;3648;50.614;13.830;2023-01-26T04:17:03;0.80;1.00
7214;DHT22;3648;50.614;13.830;2023-01-26T04:19:48;0.70;1.00
7214;DHT22;3648;50.614;13.830;2023-01-26T04:22:34;0.70;1.00
7214;DHT22;3648;50.614;13.830;2023-01-26T04:25:09;0.70;1.00
7214;DHT22;3648;50.614;13.830;2023-01-26T04:27:36;0.70;1.00
7214;DHT22;3648;50.614;13.830;2023-01-26T04:30:04;0.70;1.00
7214;DHT22;3648;50.614;13.830;2023-01-26T04:32:33;0.70;1.00
7214;DHT22;3648;50.614;13.830;2023-01-26T04:34:59;0.80;1.00
7214;DHT22;3648;50.614;13.830;2023-01-26T04:37:27;0.70;1.00
7214;DHT22;3648;50.614;13.830;2023-01-26T04:39:53;0.70;1.00
7214;DHT22;3648;50.614;13.830;2023-01-26T04:42:20;0.70;1.00
7214;DHT22;3648;50.614;13.830;2023-01-26T04:44:49;0.70;1.00
7214;DHT22;3648;50.614;13.830;2023-01-26T04:47:16;0.70;1.00
7214;DHT22;3648;50.614;13.830;2023-01-26T04:49:45;0.70;1.00
7214;DHT22;3648;50.614;13.830;2023-01-26T04:52:12;0.70;1.00
7214;DHT22;3648;50.614;13.830;2023-01-26T04:54:39;0.70;1.00
7214;DHT22;3648;50.614;13.830;2023-01-26T04:57:06;0.70;1.00
7214;DHT22;3648;50.614;13.830;2023-01-26T04:59:33;0.70;1.00
7214;DHT22;3648;50.614;13.830;2023-01-26T05:02:00;0.70;1.00
7214;DHT22;3648;50.614;13.830;2023-01-26T05:04:27;0.70;1.00
7214;DHT22;3648;50.614;13.830;2023-01-26T05:06:55;0.60;1.00
7214;DHT22;3648;50.614;13.830;2023-01-26T05:09:22;0.60;1.00
7214;DHT22;3648;50.614;13.830;2023-01-26T05:11:49;0.60;1.00
7214;DHT22;3648;50.614;13.830;2023-01-26T05:14:16;0.60;1.00
7214;DHT22;3648;50.614;13.830;2023-01-26T05:16:43;0.70;1.00
7214;DHT22;3648;50.614;13.830;2023-01-26T05:19:10;0.70;1.00
7214;DHT22;3648;50.614;13.830;2023-01-26T05:21:37;0.70;1.00
7214;DHT22;3648;50.614;13.830;2023-01-26T05:24:06;0.70;1.00
7214;DHT22;3648;50.614;13.830;2023-01-26T05:26:33;0.80;1.00
7214;DHT22;3648;50.614;13.830;2023-01-26T05:29:00;0.70;1.00
7214;DHT22;3648;50.614;13.830;2023-01-26T05:31:27;0.70;1.00
7214;DHT22;3648;50.614;13.830;2023-01-26T05:33:54;0.70;1.00
7214;DHT22;3648;50.614;13.830;2023-01-26T05:36:21;0.70;1.00
7214;DHT22;3648;50.614;13.830;2023-01-26T05:38:48;0.70;1.00
7214;DHT22;3648;50.614;13.830;2023-01-26T05:41:16;0.70;1.00
7214;DHT22;3648;50.614;13.830;2023-01-26T05:43:43;0.70;1.00
7214;DHT22;3648;50.614;13.830;2023-01-26T05:46:10;0.70;1.00
7214;DHT22;3648;50.614;13.830;2023-01-26T05:48:37;0.80;1.00
7214;DHT22;3648;50.614;13.830;2023-01-26T05:51:04;0.80;1.00
7214;DHT22;3648;50.614;13.830;2023-01-26T05:53:31;0.80;1.00
7214;DHT22;3648;50.614;13.830;2023-01-26T05:55:58;0.90;1.00
7214;DHT22;3648;50.614;13.830;2023-01-26T05:58:26;0.90;1.00
7214;DHT22;3648;50.614;13.830;2023-01-26T06:00:53;0.90;1.00
7214;DHT22;3648;50.614;13.830;2023-01-26T06:03:20;1.00;1.00
7214;DHT22;3648;50.614;13.830;2023-01-26T06:05:52;0.90;1.00
7214;DHT22;3648;50.614;13.830;2023-01-26T06:08:19;1.00;1.00
7214;DHT22;3648;50.614;13.830;2023-01-26T06:10:46;1.00;1.00
7214;DHT22;3648;50.614;13.830;2023-01-26T06:13:13;1.00;1.00
7214;DHT22;3648;50.614;13.830;2023-01-26T06:15:41;1.00;1.00
7214;DHT22;3648;50.614;13.830;2023-01-26T06:18:08;1.10;1.00
7214;DHT22;3648;50.614;13.830;2023-01-26T06:20:35;1.10;1.00
7214;DHT22;3648;50.614;13.830;2023-01-26T06:23:02;1.10;1.00
7214;DHT22;3648;50.614;13.830;2023-01-26T06:25:30;1.10;1.00
7214;DHT22;3648;50.614;13.830;2023-01-26T06:27:57;1.20;1.00
7214;DHT22;3648;50.614;13.830;2023-01-26T06:30:25;1.20;1.00
7214;DHT22;3648;50.614;13.830;2023-01-26T06:32:53;1.10;1.00
7214;DHT22;3648;50.614;13.830;2023-01-26T06:35:20;1.10;1.00
7214;DHT22;3648;50.614;13.830;2023-01-26T06:37:48;1.10;1.00
7214;DHT22;3648;50.614;13.830;2023-01-26T06:40:16;1.20;1.00
7214;DHT22;3648;50.614;13.830;2023-01-26T06:42:46;1.20;1.00
7214;DHT22;3648;50.614;13.830;2023-01-26T06:45:14;1.20;1.00
7214;DHT22;3648;50.614;13.830;2023-01-26T06:47:44;1.20;1.00
7214;DHT22;3648;50.614;13.830;2023-01-26T06:50:14;1.20;1.00
7214;DHT22;3648;50.614;13.830;2023-01-26T06:52:41;1.20;1.00
7214;DHT22;3648;50.614;13.830;2023-01-26T06:55:16;1.20;1.00
7214;DHT22;3648;50.614;13.830;2023-01-26T06:57:44;1.20;1.00
7214;DHT22;3648;50.614;13.830;2023-01-26T07:00:12;1.20;1.00
7214;DHT22;3648;50.614;13.830;2023-01-26T07:02:39;1.10;1.00
7214;DHT22;3648;50.614;13.830;2023-01-26T07:05:07;1.10;1.00
7214;DHT22;3648;50.614;13.830;2023-01-26T07:07:35;1.00;1.00
7214;DHT22;3648;50.614;13.830;2023-01-26T07:10:03;1.10;1.00
7214;DHT22;3648;50.614;13.830;2023-01-26T07:12:39;1.10;1.00
7214;DHT22;3648;50.614;13.830;2023-01-26T07:15:07;1.10;1.00
7214;DHT22;3648;50.614;13.830;2023-01-26T07:17:34;1.10;1.00
7214;DHT22;3648;50.614;13.830;2023-01-26T07:20:01;1.10;1.00
7214;DHT22;3648;50.614;13.830;2023-01-26T07:22:28;1.20;1.00
7214;DHT22;3648;50.614;13.830;2023-01-26T07:24:56;1.20;1.00
7214;DHT22;3648;50.614;13.830;2023-01-26T07:27:23;1.20;1.00
7214;DHT22;3648;50.614;13.830;2023-01-26T07:29:50;1.30;1.00
7214;DHT22;3648;50.614;13.830;2023-01-26T07:32:17;1.30;1.00
7214;DHT22;3648;50.614;13.830;2023-01-26T07:34:44;1.30;1.00
7214;DHT22;3648;50.614;13.830;2023-01-26T07:37:11;1.30;1.00
7214;DHT22;3648;50.614;13.830;2023-01-26T07:39:38;1.30;1.00
7214;DHT22;3648;50.614;13.830;2023-01-26T07:42:06;1.30;1.00
7214;DHT22;3648;50.614;13.830;2023-01-26T07:44:35;1.30;1.00
7214;DHT22;3648;50.614;13.830;2023-01-26T07:47:01;1.30;1.00
7214;DHT22;3648;50.614;13.830;2023-01-26T07:49:28;1.30;1.00
7214;DHT22;3648;50.614;13.830;2023-01-26T07:51:56;1.30;1.00
7214;DHT22;3648;50.614;13.830;2023-01-26T07:54:23;1.30;1.00
7214;DHT22;3648;50.614;13.830;2023-01-26T07:56:51;1.20;1.00
7214;DHT22;3648;50.614;13.830;2023-01-26T07:59:20;1.20;1.00
7214;DHT22;3648;50.614;13.830;2023-01-26T08:01:48;1.20;1.00
7214;DHT22;3648;50.614;13.830;2023-01-26T08:04:15;1.10;1.00
7214;DHT22;3648;50.614;13.830;2023-01-26T08:06:42;1.10;1.00
7214;DHT22;3648;50.614;13.830;2023-01-26T08:09:09;1.00;1.00
7214;DHT22;3648;50.614;13.830;2023-01-26T08:11:36;1.10;1.00
7214;DHT22;3648;50.614;13.830;2023-01-26T08:14:03;1.10;1.00
7214;DHT22;3648;50.614;13.830;2023-01-26T08:16:31;1.10;1.00
7214;DHT22;3648;50.614;13.830;2023-01-26T08:18:58;1.10;1.00
7214;DHT22;3648;50.614;13.830;2023-01-26T08:21:25;1.00;1.00
7214;DHT22;3648;50.614;13.830;2023-01-26T08:23:53;1.00;1.00
7214;DHT22;3648;50.614;13.830;2023-01-26T08:26:20;1.00;1.00
7214;DHT22;3648;50.614;13.830;2023-01-26T08:28:47;1.10;1.00
7214;DHT22;3648;50.614;13.830;2023-01-26T08:31:16;1.20;1.00
7214;DHT22;3648;50.614;13.830;2023-01-26T08:33:46;1.20;1.00
7214;DHT22;3648;50.614;13.830;2023-01-26T08:36:15;1.20;1.00
7214;DHT22;3648;50.614;13.830;2023-01-26T08:38:43;1.10;1.00
7214;DHT22;3648;50.614;13.830;2023-01-26T08:41:10;1.20;1.00
7214;DHT22;3648;50.614;13.830;2023-01-26T08:43:37;1.20;1.00
7214;DHT22;3648;50.614;13.830;2023-01-26T08:46:05;1.20;1.00
7214;DHT22;3648;50.614;13.830;2023-01-26T08:48:32;1.10;1.00
7214;DHT22;3648;50.614;13.830;2023-01-26T08:51:01;1.20;1.00
7214;DHT22;3648;50.614;13.830;2023-01-26T08:53:30;1.30;1.00
7214;DHT22;3648;50.614;13.830;2023-01-26T08:56:00;1.30;1.00
7214;DHT22;3648;50.614;13.830;2023-01-26T08:58:27;1.40;1.00
7214;DHT22;3648;50.614;13.830;2023-01-26T09:00:54;1.40;1.00
7214;DHT22;3648;50.614;13.830;2023-01-26T09:03:21;1.40;1.00
7214;DHT22;3648;50.614;13.830;2023-01-26T09:05:48;1.30;1.00
7214;DHT22;3648;50.614;13.830;2023-01-26T09:08:16;1.30;1.00
7214;DHT22;3648;50.614;13.830;2023-01-26T09:10:43;1.30;1.00
7214;DHT22;3648;50.614;13.830;2023-01-26T09:13:10;1.40;1.00
7214;DHT22;3648;50.614;13.830;2023-01-26T09:15:37;1.40;1.00
7214;DHT22;3648;50.614;13.830;2023-01-26T09:18:04;1.40;1.00
7214;DHT22;3648;50.614;13.830;2023-01-26T09:20:31;1.50;1.00
7214;DHT22;3648;50.614;13.830;2023-01-26T09:22:58;1.50;1.00
7214;DHT22;3648;50.614;13.830;2023-01-26T09:25:27;1.50;1.00
7214;DHT22;3648;50.614;13.830;2023-01-26T09:27:54;1.40;1.00
7214;DHT22;3648;50.614;13.830;2023-01-26T09:30:21;1.40;1.00
7214;DHT22;3648;50.614;13.830;2023-01-26T09:32:49;1.50;1.00
7214;DHT22;3648;50.614;13.830;2023-01-26T09:35:16;1.50;1.00
7214;DHT22;3648;50.614;13.830;2023-01-26T09:37:45;1.50;1.00
7214;DHT22;3648;50.614;13.830;2023-01-26T09:40:16;1.50;1.00
7214;DHT22;3648;50.614;13.830;2023-01-26T09:42:57;1.60;1.00
7214;DHT22;3648;50.614;13.830;2023-01-26T09:45:30;1.60;1.00
7214;DHT22;3648;50.614;13.830;2023-01-26T09:48:16;1.60;1.00
7214;DHT22;3648;50.614;13.830;2023-01-26T09:50:53;1.60;1.00
7214;DHT22;3648;50.614;13.830;2023-01-26T09:53:24;1.60;1.00
7214;DHT22;3648;50.614;13.830;2023-01-26T09:55:53;1.50;1.00
7214;DHT22;3648;50.614;13.830;2023-01-26T09:58:30;1.50;1.00
7214;DHT22;3648;50.614;13.830;2023-01-26T10:00:59;1.50;1.00
7214;DHT22;3648;50.614;13.830;2023-01-26T10:03:31;1.40;1.00
7214;DHT22;3648;50.614;13.830;2023-01-26T10:06:04;1.40;1.00
7214;DHT22;3648;50.614;13.830;2023-01-26T10:08:38;1.40;1.00
7214;DHT22;3648;50.614;13.830;2023-01-26T10:11:13;1.40;1.00
7214;DHT22;3648;50.614;13.830;2023-01-26T10:13:47;1.40;1.00
7214;DHT22;3648;50.614;13.830;2023-01-26T10:16:16;1.40;1.00
7214;DHT22;3648;50.614;13.830;2023-01-26T10:18:49;1.40;1.00
7214;DHT22;3648;50.614;13.830;2023-01-26T10:21:21;1.40;1.00
7214;DHT22;3648;50.614;13.830;2023-01-26T10:23:50;1.40;1.00
7214;DHT22;3648;50.614;13.830;2023-01-26T10:26:18;1.40;1.00
7214;DHT22;3648;50.614;13.830;2023-01-26T10:28:49;1.50;1.00
7214;DHT22;3648;50.614;13.830;2023-01-26T10:31:17;1.50;1.00
7214;DHT22;3648;50.614;13.830;2023-01-26T10:33:53;1.50;1.00
7214;DHT22;3648;50.614;13.830;2023-01-26T10:36:20;1.50;1.00
7214;DHT22;3648;50.614;13.830;2023-01-26T10:38:48;1.50;1.00
7214;DHT22;3648;50.614;13.830;2023-01-26T10:41:26;1.50;1.00
7214;DHT22;3648;50.614;13.830;2023-01-26T10:43:56;1.50;1.00
7214;DHT22;3648;50.614;13.830;2023-01-26T10:46:29;1.50;1.00
7214;DHT22;3648;50.614;13.830;2023-01-26T10:48:58;1.50;1.00
7214;DHT22;3648;50.614;13.830;2023-01-26T10:51:28;1.60;1.00
7214;DHT22;3648;50.614;13.830;2023-01-26T10:54:18;1.60;1.00
7214;DHT22;3648;50.614;13.830;2023-01-26T10:56:47;1.60;1.00
7214;DHT22;3648;50.614;13.830;2023-01-26T10:59:23;1.60;1.00
7214;DHT22;3648;50.614;13.830;2023-01-26T11:01:52;1.60;1.00
7214;DHT22;3648;50.614;13.830;2023-01-26T11:04:19;1.60;1.00
7214;DHT22;3648;50.614;13.830;2023-01-26T11:06:46;1.60;1.00
7214;DHT22;3648;50.614;13.830;2023-01-26T11:09:19;1.60;1.00
7214;DHT22;3648;50.614;13.830;2023-01-26T11:11:57;1.70;1.00
7214;DHT22;3648;50.614;13.830;2023-01-26T11:14:27;1.70;1.00
7214;DHT22;3648;50.614;13.830;2023-01-26T11:16:59;1.70;1.00
7214;DHT22;3648;50.614;13.830;2023-01-26T11:19:48;1.70;1.00
7214;DHT22;3648;50.614;13.830;2023-01-26T11:22:18;1.70;1.00
7214;DHT22;3648;50.614;13.830;2023-01-26T11:24:51;1.70;1.00
7214;DHT22;3648;50.614;13.830;2023-01-26T11:27:30;1.70;1.00
7214;DHT22;3648;50.614;13.830;2023-01-26T11:30:22;1.60;1.00
7214;DHT22;3648;50.614;13.830;2023-01-26T11:32:55;1.60;1.00
7214;DHT22;3648;50.614;13.830;2023-01-26T11:35:29;1.60;1.00
7214;DHT22;3648;50.614;13.830;2023-01-26T11:38:04;1.70;1.00
7214;DHT22;3648;50.614;13.830;2023-01-26T11:40:40;1.70;1.00
7214;DHT22;3648;50.614;13.830;2023-01-26T11:43:23;1.60;1.00
7214;DHT22;3648;50.614;13.830;2023-01-26T11:46:01;1.60;1.00
7214;DHT22;3648;50.614;13.830;2023-01-26T11:48:38;1.60;1.00
7214;DHT22;3648;50.614;13.830;2023-01-26T11:51:17;1.60;1.00
7214;DHT22;3648;50.614;13.830;2023-01-26T11:54:03;1.60;1.00
7214;DHT22;3648;50.614;13.830;2023-01-26T11:56:40;1.60;1.00
7214;DHT22;3648;50.614;13.830;2023-01-26T11:59:12;1.60;1.00
7214;DHT22;3648;50.614;13.830;2023-01-26T12:01:47;1.60;1.00
7214;DHT22;3648;50.614;13.830;2023-01-26T12:04:18;1.60;1.00
7214;DHT22;3648;50.614;13.830;2023-01-26T12:06:49;1.50;1.00
7214;DHT22;3648;50.614;13.830;2023-01-26T12:09:21;1.50;1.00
7214;DHT22;3648;50.614;13.830;2023-01-26T12:11:56;1.50;1.00
7214;DHT22;3648;50.614;13.830;2023-01-26T12:14:27;1.50;1.00
7214;DHT22;3648;50.614;13.830;2023-01-26T12:20:02;1.50;1.00
7214;DHT22;3648;50.614;13.830;2023-01-26T12:22:33;1.60;1.00
7214;DHT22;3648;50.614;13.830;2023-01-26T12:25:06;1.50;1.00
7214;DHT22;3648;50.614;13.830;2023-01-26T12:27:37;1.50;1.00
7214;DHT22;3648;50.614;13.830;2023-01-26T12:30:20;1.50;1.00
7214;DHT22;3648;50.614;13.830;2023-01-26T12:32:50;1.50;1.00
7214;DHT22;3648;50.614;13.830;2023-01-26T12:35:35;1.50;1.00
7214;DHT22;3648;50.614;13.830;2023-01-26T12:38:09;1.50;1.00
7214;DHT22;3648;50.614;13.830;2023-01-26T12:40:43;1.50;1.00
7214;DHT22;3648;50.614;13.830;2023-01-26T12:43:25;1.50;1.00
7214;DHT22;3648;50.614;13.830;2023-01-26T12:46:02;1.50;1.00
7214;DHT22;3648;50.614;13.830;2023-01-26T12:48:37;1.50;1.00
7214;DHT22;3648;50.614;13.830;2023-01-26T12:51:09;1.50;1.00
7214;DHT22;3648;50.614;13.830;2023-01-26T12:53:45;1.50;1.00
7214;DHT22;3648;50.614;13.830;2023-01-26T12:56:20;1.50;1.00
7214;DHT22;3648;50.614;13.830;2023-01-26T12:58:50;1.50;1.00
7214;DHT22;3648;50.614;13.830;2023-01-26T13:01:20;1.50;1.00
7214;DHT22;3648;50.614;13.830;2023-01-26T13:03:54;1.50;1.00
7214;DHT22;3648;50.614;13.830;2023-01-26T13:06:23;1.50;1.00
7214;DHT22;3648;50.614;13.830;2023-01-26T13:08:59;1.50;1.00
7214;DHT22;3648;50.614;13.830;2023-01-26T13:11:49;1.50;1.00
7214;DHT22;3648;50.614;13.830;2023-01-26T13:14:34;1.50;1.00
7214;DHT22;3648;50.614;13.830;2023-01-26T13:20:49;1.50;1.00
7214;DHT22;3648;50.614;13.830;2023-01-26T13:23:49;1.50;1.00
7214;DHT22;3648;50.614;13.830;2023-01-26T13:26:24;1.40;1.00
7214;DHT22;3648;50.614;13.830;2023-01-26T13:29:35;1.40;1.00
7214;DHT22;3648;50.614;13.830;2023-01-26T13:35:24;1.40;1.00
7214;DHT22;3648;50.614;13.830;2023-01-26T13:37:58;1.40;1.00
7214;DHT22;3648;50.614;13.830;2023-01-26T13:40:30;1.50;1.00
7214;DHT22;3648;50.614;13.830;2023-01-26T13:43:02;1.40;1.00
7214;DHT22;3648;50.614;13.830;2023-01-26T13:45:34;1.40;1.00
7214;DHT22;3648;50.614;13.830;2023-01-26T13:48:03;1.40;1.00
7214;DHT22;3648;50.614;13.830;2023-01-26T13:50:32;1.40;1.00
7214;DHT22;3648;50.614;13.830;2023-01-26T13:53:28;1.40;1.00
7214;DHT22;3648;50.614;13.830;2023-01-26T13:55:59;1.40;1.00
7214;DHT22;3648;50.614;13.830;2023-01-26T13:58:26;1.40;1.00
7214;DHT22;3648;50.614;13.830;2023-01-26T14:01:00;1.30;1.00
7214;DHT22;3648;50.614;13.830;2023-01-26T14:03:28;1.30;1.00
7214;DHT22;3648;50.614;13.830;2023-01-26T14:05:59;1.20;1.00
7214;DHT22;3648;50.614;13.830;2023-01-26T14:08:32;1.30;1.00
7214;DHT22;3648;50.614;13.830;2023-01-26T14:11:00;1.30;1.00
7214;DHT22;3648;50.614;13.830;2023-01-26T14:13:31;1.30;1.00
7214;DHT22;3648;50.614;13.830;2023-01-26T14:16:00;1.30;1.00
7214;DHT22;3648;50.614;13.830;2023-01-26T14:18:27;1.30;1.00
7214;DHT22;3648;50.614;13.830;2023-01-26T14:20:59;1.30;1.00
7214;DHT22;3648;50.614;13.830;2023-01-26T14:23:32;1.30;1.00
7214;DHT22;3648;50.614;13.830;2023-01-26T14:26:01;1.30;1.00
7214;DHT22;3648;50.614;13.830;2023-01-26T14:28:32;1.30;1.00
7214;DHT22;3648;50.614;13.830;2023-01-26T14:31:02;1.30;1.00
7214;DHT22;3648;50.614;13.830;2023-01-26T14:33:31;1.30;1.00
7214;DHT22;3648;50.614;13.830;2023-01-26T14:36:00;1.30;1.00
7214;DHT22;3648;50.614;13.830;2023-01-26T14:38:28;1.30;1.00
7214;DHT22;3648;50.614;13.830;2023-01-26T14:40:59;1.30;1.00
7214;DHT22;3648;50.614;13.830;2023-01-26T14:43:27;1.30;1.00
7214;DHT22;3648;50.614;13.830;2023-01-26T14:45:59;1.30;1.00
7214;DHT22;3648;50.614;13.830;2023-01-26T14:48:31;1.30;1.00
7214;DHT22;3648;50.614;13.830;2023-01-26T14:51:00;1.30;1.00
7214;DHT22;3648;50.614;13.830;2023-01-26T14:53:31;1.20;1.00
7214;DHT22;3648;50.614;13.830;2023-01-26T14:56:00;1.20;1.00
7214;DHT22;3648;50.614;13.830;2023-01-26T14:58:29;1.20;1.00
7214;DHT22;3648;50.614;13.830;2023-01-26T15:00:57;1.20;1.00
7214;DHT22;3648;50.614;13.830;2023-01-26T15:03:26;1.10;1.00
7214;DHT22;3648;50.614;13.830;2023-01-26T15:06:04;1.10;1.00
7214;DHT22;3648;50.614;13.830;2023-01-26T15:08:31;1.00;1.00
7214;DHT22;3648;50.614;13.830;2023-01-26T15:11:01;0.90;1.00
7214;DHT22;3648;50.614;13.830;2023-01-26T15:13:47;0.80;1.00
7214;DHT22;3648;50.614;13.830;2023-01-26T15:16:19;0.80;1.00
7214;DHT22;3648;50.614;13.830;2023-01-26T15:18:57;0.80;1.00
7214;DHT22;3648;50.614;13.830;2023-01-26T15:21:31;0.70;1.00
7214;DHT22;3648;50.614;13.830;2023-01-26T15:23:59;0.70;1.00
7214;DHT22;3648;50.614;13.830;2023-01-26T15:26:29;0.60;1.00
7214;DHT22;3648;50.614;13.830;2023-01-26T15:28:57;0.60;1.00
7214;DHT22;3648;50.614;13.830;2023-01-26T15:31:29;0.60;1.00
7214;DHT22;3648;50.614;13.830;2023-01-26T15:33:57;0.60;1.00
7214;DHT22;3648;50.614;13.830;2023-01-26T15:36:31;0.60;1.00
7214;DHT22;3648;50.614;13.830;2023-01-26T15:39:01;0.60;1.00
7214;DHT22;3648;50.614;13.830;2023-01-26T15:41:30;0.60;1.00
7214;DHT22;3648;50.614;13.830;2023-01-26T15:43:57;0.60;1.00
7214;DHT22;3648;50.614;13.830;2023-01-26T15:46:26;0.60;1.00
7214;DHT22;3648;50.614;13.830;2023-01-26T15:48:54;0.60;1.00
7214;DHT22;3648;50.614;13.830;2023-01-26T15:51:21;0.60;1.00
7214;DHT22;3648;50.614;13.830;2023-01-26T15:53:48;0.60;1.00
7214;DHT22;3648;50.614;13.830;2023-01-26T15:56:15;0.60;1.00
7214;DHT22;3648;50.614;13.830;2023-01-26T15:58:44;0.60;1.00
7214;DHT22;3648;50.614;13.830;2023-01-26T16:01:17;0.60;1.00
7214;DHT22;3648;50.614;13.830;2023-01-26T16:03:45;0.60;1.00
7214;DHT22;3648;50.614;13.830;2023-01-26T16:06:20;0.60;1.00
7214;DHT22;3648;50.614;13.830;2023-01-26T16:08:48;0.50;1.00
7214;DHT22;3648;50.614;13.830;2023-01-26T16:11:15;0.50;1.00
7214;DHT22;3648;50.614;13.830;2023-01-26T16:13:44;0.50;1.00
7214;DHT22;3648;50.614;13.830;2023-01-26T16:16:12;0.40;1.00
7214;DHT22;3648;50.614;13.830;2023-01-26T16:18:40;0.50;1.00
7214;DHT22;3648;50.614;13.830;2023-01-26T16:21:16;0.40;1.00
7214;DHT22;3648;50.614;13.830;2023-01-26T16:23:43;0.40;1.00
7214;DHT22;3648;50.614;13.830;2023-01-26T16:26:12;0.40;1.00
7214;DHT22;3648;50.614;13.830;2023-01-26T16:28:39;0.40;1.00
7214;DHT22;3648;50.614;13.830;2023-01-26T16:31:15;0.40;1.00
7214;DHT22;3648;50.614;13.830;2023-01-26T16:33:42;0.40;1.00
7214;DHT22;3648;50.614;13.830;2023-01-26T16:36:11;0.40;1.00
7214;DHT22;3648;50.614;13.830;2023-01-26T16:38:38;0.40;1.00
7214;DHT22;3648;50.614;13.830;2023-01-26T16:41:08;0.40;1.00
7214;DHT22;3648;50.614;13.830;2023-01-26T16:43:40;0.40;1.00
7214;DHT22;3648;50.614;13.830;2023-01-26T16:46:07;0.30;1.00
7214;DHT22;3648;50.614;13.830;2023-01-26T16:48:37;0.30;1.00
7214;DHT22;3648;50.614;13.830;2023-01-26T16:51:15;0.30;1.00